Terminal Aerodrome Forecast
Issued by NWS Sioux Falls, SD

Home | Current Version | Previous Version | Text Only | Print | Product List | Glossary On
Versions: 1 2 3 4 5 6 7 8 9 10 11 12 13 14 15 16 17 18 19 20
000
FTUS43 KFSD 211120
TAFFSD
TAF
KFSD 211120Z 2112/2212 17009KT 1/2SM FZFG VV002
     FM211700 16010KT 2SM BR OVC003
     FM212000 16014G21KT 5SM BR OVC008
     FM220200 17014G22KT 2SM BR OVC005
     FM220600 17013KT 4SM -RA OVC010=

USA.gov is the U.S. government's official web portal to all federal, state and local government web resources and services.